sensor_id;sensor_type;location;lat;lon;timestamp;P1;durP1;ratioP1;P2;durP2;ratioP2
12840;SDS011;6487;48.626;12.486;2023-05-29T00:00:04;7.90;;;5.87;;
12840;SDS011;6487;48.626;12.486;2023-05-29T00:02:34;8.30;;;5.63;;
12840;SDS011;6487;48.626;12.486;2023-05-29T00:05:03;8.67;;;5.53;;
12840;SDS011;6487;48.626;12.486;2023-05-29T00:07:32;8.07;;;5.40;;
12840;SDS011;6487;48.626;12.486;2023-05-29T00:10:02;8.23;;;6.17;;
12840;SDS011;6487;48.626;12.486;2023-05-29T00:12:31;7.43;;;5.43;;
12840;SDS011;6487;48.626;12.486;2023-05-29T00:15:00;6.73;;;5.63;;
12840;SDS011;6487;48.626;12.486;2023-05-29T00:17:30;5.73;;;5.00;;
12840;SDS011;6487;48.626;12.486;2023-05-29T00:19:59;6.30;;;5.37;;
12840;SDS011;6487;48.626;12.486;2023-05-29T00:22:30;8.60;;;5.83;;
12840;SDS011;6487;48.626;12.486;2023-05-29T00:24:59;7.40;;;5.97;;
12840;SDS011;6487;48.626;12.486;2023-05-29T00:27:29;7.03;;;5.87;;
12840;SDS011;6487;48.626;12.486;2023-05-29T00:30:00;6.60;;;5.90;;
12840;SDS011;6487;48.626;12.486;2023-05-29T00:32:29;6.73;;;6.03;;
12840;SDS011;6487;48.626;12.486;2023-05-29T00:34:57;7.13;;;5.53;;
12840;SDS011;6487;48.626;12.486;2023-05-29T00:37:26;6.70;;;5.30;;
12840;SDS011;6487;48.626;12.486;2023-05-29T00:40:02;6.60;;;5.30;;
12840;SDS011;6487;48.626;12.486;2023-05-29T00:42:32;7.93;;;5.67;;
12840;SDS011;6487;48.626;12.486;2023-05-29T00:45:04;6.40;;;5.50;;
12840;SDS011;6487;48.626;12.486;2023-05-29T00:47:34;7.17;;;5.40;;
12840;SDS011;6487;48.626;12.486;2023-05-29T00:50:03;8.63;;;6.17;;
12840;SDS011;6487;48.626;12.486;2023-05-29T00:52:32;7.97;;;5.70;;
12840;SDS011;6487;48.626;12.486;2023-05-29T00:55:01;6.07;;;5.47;;
12840;SDS011;6487;48.626;12.486;2023-05-29T00:57:30;6.63;;;5.53;;
12840;SDS011;6487;48.626;12.486;2023-05-29T01:00:00;7.07;;;5.70;;
12840;SDS011;6487;48.626;12.486;2023-05-29T01:02:34;6.40;;;5.23;;
12840;SDS011;6487;48.626;12.486;2023-05-29T01:05:04;7.90;;;5.77;;
12840;SDS011;6487;48.626;12.486;2023-05-29T01:07:32;7.80;;;5.33;;
12840;SDS011;6487;48.626;12.486;2023-05-29T01:10:01;8.80;;;6.40;;
12840;SDS011;6487;48.626;12.486;2023-05-29T01:12:33;6.20;;;5.20;;
12840;SDS011;6487;48.626;12.486;2023-05-29T01:15:12;5.70;;;4.87;;
12840;SDS011;6487;48.626;12.486;2023-05-29T01:17:57;7.53;;;5.20;;
12840;SDS011;6487;48.626;12.486;2023-05-29T01:20:44;6.37;;;5.17;;
12840;SDS011;6487;48.626;12.486;2023-05-29T01:23:33;5.77;;;5.07;;
12840;SDS011;6487;48.626;12.486;2023-05-29T01:29:19;7.30;;;5.40;;
12840;SDS011;6487;48.626;12.486;2023-05-29T01:31:50;11.77;;;5.47;;
12840;SDS011;6487;48.626;12.486;2023-05-29T01:34:20;7.80;;;5.47;;
12840;SDS011;6487;48.626;12.486;2023-05-29T01:36:48;8.13;;;5.47;;
12840;SDS011;6487;48.626;12.486;2023-05-29T01:39:17;6.17;;;5.20;;
12840;SDS011;6487;48.626;12.486;2023-05-29T01:41:50;7.33;;;5.57;;
12840;SDS011;6487;48.626;12.486;2023-05-29T01:44:20;5.97;;;5.37;;
12840;SDS011;6487;48.626;12.486;2023-05-29T01:46:50;7.57;;;5.83;;
12840;SDS011;6487;48.626;12.486;2023-05-29T01:49:19;6.43;;;5.03;;
12840;SDS011;6487;48.626;12.486;2023-05-29T01:51:50;7.33;;;5.50;;
12840;SDS011;6487;48.626;12.486;2023-05-29T01:54:22;8.67;;;5.60;;
12840;SDS011;6487;48.626;12.486;2023-05-29T01:56:52;6.37;;;5.43;;
12840;SDS011;6487;48.626;12.486;2023-05-29T01:59:24;6.13;;;5.27;;
12840;SDS011;6487;48.626;12.486;2023-05-29T02:01:53;7.03;;;5.40;;
12840;SDS011;6487;48.626;12.486;2023-05-29T02:04:21;7.13;;;4.93;;
12840;SDS011;6487;48.626;12.486;2023-05-29T02:06:50;5.20;;;4.70;;
12840;SDS011;6487;48.626;12.486;2023-05-29T02:09:20;9.50;;;5.43;;
12840;SDS011;6487;48.626;12.486;2023-05-29T02:11:53;6.37;;;5.57;;
12840;SDS011;6487;48.626;12.486;2023-05-29T02:14:21;8.00;;;5.30;;
12840;SDS011;6487;48.626;12.486;2023-05-29T02:16:50;7.43;;;5.23;;
12840;SDS011;6487;48.626;12.486;2023-05-29T02:19:19;6.77;;;5.17;;
12840;SDS011;6487;48.626;12.486;2023-05-29T02:21:47;8.97;;;4.83;;
12840;SDS011;6487;48.626;12.486;2023-05-29T02:24:16;6.77;;;5.30;;
12840;SDS011;6487;48.626;12.486;2023-05-29T02:26:45;7.43;;;5.10;;
12840;SDS011;6487;48.626;12.486;2023-05-29T02:29:17;6.10;;;5.37;;
12840;SDS011;6487;48.626;12.486;2023-05-29T02:31:46;6.83;;;5.83;;
12840;SDS011;6487;48.626;12.486;2023-05-29T02:34:15;6.23;;;4.80;;
12840;SDS011;6487;48.626;12.486;2023-05-29T02:36:43;5.17;;;4.67;;
12840;SDS011;6487;48.626;12.486;2023-05-29T02:39:12;11.00;;;5.70;;
12840;SDS011;6487;48.626;12.486;2023-05-29T02:41:40;6.33;;;4.77;;
12840;SDS011;6487;48.626;12.486;2023-05-29T02:44:08;5.33;;;4.77;;
12840;SDS011;6487;48.626;12.486;2023-05-29T02:46:38;6.87;;;5.13;;
12840;SDS011;6487;48.626;12.486;2023-05-29T02:49:06;5.80;;;4.63;;
12840;SDS011;6487;48.626;12.486;2023-05-29T02:51:35;6.53;;;5.47;;
12840;SDS011;6487;48.626;12.486;2023-05-29T02:54:03;6.57;;;5.20;;
12840;SDS011;6487;48.626;12.486;2023-05-29T02:56:32;6.23;;;5.03;;
12840;SDS011;6487;48.626;12.486;2023-05-29T02:59:00;8.13;;;5.10;;
12840;SDS011;6487;48.626;12.486;2023-05-29T03:01:29;6.23;;;5.23;;
12840;SDS011;6487;48.626;12.486;2023-05-29T03:04:00;6.10;;;4.60;;
12840;SDS011;6487;48.626;12.486;2023-05-29T03:06:29;5.50;;;4.73;;
12840;SDS011;6487;48.626;12.486;2023-05-29T03:08:58;7.13;;;5.00;;
12840;SDS011;6487;48.626;12.486;2023-05-29T03:11:26;6.10;;;4.90;;
12840;SDS011;6487;48.626;12.486;2023-05-29T03:13:58;5.90;;;4.90;;
12840;SDS011;6487;48.626;12.486;2023-05-29T03:16:26;6.77;;;5.00;;
12840;SDS011;6487;48.626;12.486;2023-05-29T03:18:56;6.33;;;5.13;;
12840;SDS011;6487;48.626;12.486;2023-05-29T03:21:25;5.87;;;4.77;;
12840;SDS011;6487;48.626;12.486;2023-05-29T03:23:57;10.23;;;5.40;;
12840;SDS011;6487;48.626;12.486;2023-05-29T03:26:26;6.43;;;5.27;;
12840;SDS011;6487;48.626;12.486;2023-05-29T03:28:54;6.90;;;4.90;;
12840;SDS011;6487;48.626;12.486;2023-05-29T03:31:23;8.00;;;5.40;;
12840;SDS011;6487;48.626;12.486;2023-05-29T03:33:54;7.73;;;5.23;;
12840;SDS011;6487;48.626;12.486;2023-05-29T03:36:22;6.00;;;4.93;;
12840;SDS011;6487;48.626;12.486;2023-05-29T03:38:52;9.63;;;5.40;;
12840;SDS011;6487;48.626;12.486;2023-05-29T03:41:20;8.30;;;5.63;;
12840;SDS011;6487;48.626;12.486;2023-05-29T03:43:49;7.83;;;5.30;;
12840;SDS011;6487;48.626;12.486;2023-05-29T03:46:17;6.23;;;5.10;;
12840;SDS011;6487;48.626;12.486;2023-05-29T03:48:46;5.03;;;4.53;;
12840;SDS011;6487;48.626;12.486;2023-05-29T03:51:14;7.00;;;4.47;;
12840;SDS011;6487;48.626;12.486;2023-05-29T03:53:42;6.93;;;5.20;;
12840;SDS011;6487;48.626;12.486;2023-05-29T03:56:12;5.80;;;5.20;;
12840;SDS011;6487;48.626;12.486;2023-05-29T03:58:41;7.50;;;5.37;;
12840;SDS011;6487;48.626;12.486;2023-05-29T04:01:12;8.20;;;5.33;;
12840;SDS011;6487;48.626;12.486;2023-05-29T04:03:41;5.37;;;4.60;;
12840;SDS011;6487;48.626;12.486;2023-05-29T04:06:10;6.60;;;5.23;;
12840;SDS011;6487;48.626;12.486;2023-05-29T04:08:39;8.97;;;5.67;;
12840;SDS011;6487;48.626;12.486;2023-05-29T04:11:07;8.67;;;6.03;;
12840;SDS011;6487;48.626;12.486;2023-05-29T04:13:41;6.97;;;5.30;;
12840;SDS011;6487;48.626;12.486;2023-05-29T04:16:09;8.53;;;5.57;;
12840;SDS011;6487;48.626;12.486;2023-05-29T04:18:38;7.57;;;5.97;;
12840;SDS011;6487;48.626;12.486;2023-05-29T04:21:09;9.10;;;5.70;;
12840;SDS011;6487;48.626;12.486;2023-05-29T04:23:38;7.73;;;5.70;;
12840;SDS011;6487;48.626;12.486;2023-05-29T04:26:06;8.37;;;5.37;;
12840;SDS011;6487;48.626;12.486;2023-05-29T04:28:35;6.83;;;4.90;;
12840;SDS011;6487;48.626;12.486;2023-05-29T04:31:05;8.37;;;4.80;;
12840;SDS011;6487;48.626;12.486;2023-05-29T04:33:34;7.83;;;5.53;;
12840;SDS011;6487;48.626;12.486;2023-05-29T04:36:05;7.20;;;4.97;;
12840;SDS011;6487;48.626;12.486;2023-05-29T04:38:37;6.77;;;5.60;;
12840;SDS011;6487;48.626;12.486;2023-05-29T04:41:06;6.50;;;5.90;;
12840;SDS011;6487;48.626;12.486;2023-05-29T04:43:39;6.60;;;5.00;;
12840;SDS011;6487;48.626;12.486;2023-05-29T04:46:09;5.83;;;5.17;;
12840;SDS011;6487;48.626;12.486;2023-05-29T04:48:39;8.80;;;5.73;;
12840;SDS011;6487;48.626;12.486;2023-05-29T04:51:07;5.80;;;5.20;;
12840;SDS011;6487;48.626;12.486;2023-05-29T04:53:37;6.93;;;5.20;;
12840;SDS011;6487;48.626;12.486;2023-05-29T04:56:07;8.73;;;5.97;;
12840;SDS011;6487;48.626;12.486;2023-05-29T04:58:40;6.87;;;5.30;;
12840;SDS011;6487;48.626;12.486;2023-05-29T05:01:10;7.70;;;5.77;;
12840;SDS011;6487;48.626;12.486;2023-05-29T05:03:40;6.03;;;5.27;;
12840;SDS011;6487;48.626;12.486;2023-05-29T05:06:09;7.53;;;6.10;;
12840;SDS011;6487;48.626;12.486;2023-05-29T05:08:39;7.30;;;6.23;;
12840;SDS011;6487;48.626;12.486;2023-05-29T05:11:07;7.30;;;6.40;;
12840;SDS011;6487;48.626;12.486;2023-05-29T05:13:35;7.03;;;4.97;;
12840;SDS011;6487;48.626;12.486;2023-05-29T05:16:04;7.20;;;5.90;;
12840;SDS011;6487;48.626;12.486;2023-05-29T05:18:35;6.30;;;5.70;;
12840;SDS011;6487;48.626;12.486;2023-05-29T05:21:06;7.87;;;5.77;;
12840;SDS011;6487;48.626;12.486;2023-05-29T05:23:34;7.50;;;5.80;;
12840;SDS011;6487;48.626;12.486;2023-05-29T05:26:23;6.97;;;5.63;;
12840;SDS011;6487;48.626;12.486;2023-05-29T05:28:52;6.33;;;5.73;;
12840;SDS011;6487;48.626;12.486;2023-05-29T05:31:21;8.17;;;5.90;;
12840;SDS011;6487;48.626;12.486;2023-05-29T05:33:52;7.60;;;5.87;;
12840;SDS011;6487;48.626;12.486;2023-05-29T05:36:20;7.37;;;5.73;;
12840;SDS011;6487;48.626;12.486;2023-05-29T05:38:49;7.57;;;5.70;;
12840;SDS011;6487;48.626;12.486;2023-05-29T05:41:17;8.83;;;6.03;;
12840;SDS011;6487;48.626;12.486;2023-05-29T05:43:47;7.93;;;6.63;;
12840;SDS011;6487;48.626;12.486;2023-05-29T05:46:15;8.73;;;6.47;;
12840;SDS011;6487;48.626;12.486;2023-05-29T05:48:44;8.73;;;6.23;;
12840;SDS011;6487;48.626;12.486;2023-05-29T05:51:14;7.43;;;6.63;;
12840;SDS011;6487;48.626;12.486;2023-05-29T05:53:43;7.63;;;6.27;;
12840;SDS011;6487;48.626;12.486;2023-05-29T05:56:19;7.20;;;6.50;;
12840;SDS011;6487;48.626;12.486;2023-05-29T05:58:48;6.57;;;5.87;;
12840;SDS011;6487;48.626;12.486;2023-05-29T06:01:16;6.90;;;6.20;;
12840;SDS011;6487;48.626;12.486;2023-05-29T06:03:44;8.00;;;6.70;;
12840;SDS011;6487;48.626;12.486;2023-05-29T06:06:14;7.53;;;6.03;;
12840;SDS011;6487;48.626;12.486;2023-05-29T06:08:44;7.17;;;6.37;;
12840;SDS011;6487;48.626;12.486;2023-05-29T06:11:15;8.87;;;6.90;;
12840;SDS011;6487;48.626;12.486;2023-05-29T06:13:49;7.57;;;5.93;;
12840;SDS011;6487;48.626;12.486;2023-05-29T06:16:18;7.50;;;5.83;;
12840;SDS011;6487;48.626;12.486;2023-05-29T06:18:46;7.20;;;6.50;;
12840;SDS011;6487;48.626;12.486;2023-05-29T06:21:16;7.57;;;5.80;;
12840;SDS011;6487;48.626;12.486;2023-05-29T06:23:45;10.63;;;5.83;;
12840;SDS011;6487;48.626;12.486;2023-05-29T06:26:14;7.23;;;5.77;;
12840;SDS011;6487;48.626;12.486;2023-05-29T06:28:43;9.50;;;6.27;;
12840;SDS011;6487;48.626;12.486;2023-05-29T06:31:11;6.37;;;5.70;;
12840;SDS011;6487;48.626;12.486;2023-05-29T06:33:40;8.43;;;5.70;;
12840;SDS011;6487;48.626;12.486;2023-05-29T06:36:08;6.37;;;5.13;;
12840;SDS011;6487;48.626;12.486;2023-05-29T06:38:38;9.07;;;5.33;;
12840;SDS011;6487;48.626;12.486;2023-05-29T06:41:06;6.67;;;4.90;;
12840;SDS011;6487;48.626;12.486;2023-05-29T06:43:35;6.70;;;5.27;;
12840;SDS011;6487;48.626;12.486;2023-05-29T06:46:03;8.53;;;5.03;;
12840;SDS011;6487;48.626;12.486;2023-05-29T06:48:32;7.17;;;5.00;;
12840;SDS011;6487;48.626;12.486;2023-05-29T06:51:01;5.63;;;4.73;;
12840;SDS011;6487;48.626;12.486;2023-05-29T06:53:34;6.27;;;4.97;;
12840;SDS011;6487;48.626;12.486;2023-05-29T06:56:05;6.30;;;4.50;;
12840;SDS011;6487;48.626;12.486;2023-05-29T06:58:33;6.97;;;4.63;;
12840;SDS011;6487;48.626;12.486;2023-05-29T07:01:02;6.03;;;4.80;;
12840;SDS011;6487;48.626;12.486;2023-05-29T07:03:34;6.30;;;4.77;;
12840;SDS011;6487;48.626;12.486;2023-05-29T07:06:03;5.37;;;4.87;;
12840;SDS011;6487;48.626;12.486;2023-05-29T07:08:33;7.80;;;4.47;;
12840;SDS011;6487;48.626;12.486;2023-05-29T07:11:01;6.80;;;5.33;;
12840;SDS011;6487;48.626;12.486;2023-05-29T07:13:31;5.90;;;4.90;;
12840;SDS011;6487;48.626;12.486;2023-05-29T07:15:59;5.37;;;4.30;;
12840;SDS011;6487;48.626;12.486;2023-05-29T07:18:49;5.87;;;4.53;;
12840;SDS011;6487;48.626;12.486;2023-05-29T07:21:17;6.77;;;5.03;;
12840;SDS011;6487;48.626;12.486;2023-05-29T07:23:46;5.40;;;4.90;;
12840;SDS011;6487;48.626;12.486;2023-05-29T07:26:18;7.30;;;4.77;;
12840;SDS011;6487;48.626;12.486;2023-05-29T07:28:53;11.23;;;4.47;;
12840;SDS011;6487;48.626;12.486;2023-05-29T07:31:21;6.30;;;4.60;;
12840;SDS011;6487;48.626;12.486;2023-05-29T07:33:50;6.33;;;4.03;;
12840;SDS011;6487;48.626;12.486;2023-05-29T07:36:18;6.07;;;4.53;;
12840;SDS011;6487;48.626;12.486;2023-05-29T07:38:49;4.97;;;4.47;;
12840;SDS011;6487;48.626;12.486;2023-05-29T07:41:19;4.83;;;3.90;;
12840;SDS011;6487;48.626;12.486;2023-05-29T07:43:48;4.97;;;4.47;;
12840;SDS011;6487;48.626;12.486;2023-05-29T07:46:22;4.90;;;3.90;;
12840;SDS011;6487;48.626;12.486;2023-05-29T07:48:54;7.53;;;4.17;;
12840;SDS011;6487;48.626;12.486;2023-05-29T07:51:22;4.73;;;3.40;;
12840;SDS011;6487;48.626;12.486;2023-05-29T07:53:51;6.07;;;3.93;;
12840;SDS011;6487;48.626;12.486;2023-05-29T07:56:19;5.50;;;3.80;;
12840;SDS011;6487;48.626;12.486;2023-05-29T07:58:51;4.60;;;4.00;;
12840;SDS011;6487;48.626;12.486;2023-05-29T08:01:22;4.07;;;3.70;;
12840;SDS011;6487;48.626;12.486;2023-05-29T08:03:52;4.23;;;3.70;;
12840;SDS011;6487;48.626;12.486;2023-05-29T08:06:23;5.80;;;3.90;;
12840;SDS011;6487;48.626;12.486;2023-05-29T08:08:55;6.10;;;4.23;;
12840;SDS011;6487;48.626;12.486;2023-05-29T08:11:23;3.77;;;3.43;;
12840;SDS011;6487;48.626;12.486;2023-05-29T08:13:52;4.63;;;3.80;;
12840;SDS011;6487;48.626;12.486;2023-05-29T08:16:28;6.90;;;3.77;;
12840;SDS011;6487;48.626;12.486;2023-05-29T08:19:01;4.63;;;3.97;;
12840;SDS011;6487;48.626;12.486;2023-05-29T08:21:32;4.33;;;3.90;;
12840;SDS011;6487;48.626;12.486;2023-05-29T08:24:02;7.27;;;4.60;;
12840;SDS011;6487;48.626;12.486;2023-05-29T08:26:31;9.43;;;4.60;;
12840;SDS011;6487;48.626;12.486;2023-05-29T08:29:02;7.50;;;3.90;;
12840;SDS011;6487;48.626;12.486;2023-05-29T08:31:35;4.30;;;3.90;;
12840;SDS011;6487;48.626;12.486;2023-05-29T08:34:03;4.97;;;4.30;;
12840;SDS011;6487;48.626;12.486;2023-05-29T08:36:38;5.23;;;4.20;;
12840;SDS011;6487;48.626;12.486;2023-05-29T08:39:07;6.50;;;4.30;;
12840;SDS011;6487;48.626;12.486;2023-05-29T08:41:41;4.43;;;3.90;;
12840;SDS011;6487;48.626;12.486;2023-05-29T08:44:21;5.13;;;4.20;;
12840;SDS011;6487;48.626;12.486;2023-05-29T08:46:53;4.23;;;3.80;;
12840;SDS011;6487;48.626;12.486;2023-05-29T08:49:23;6.00;;;3.83;;
12840;SDS011;6487;48.626;12.486;2023-05-29T08:51:53;7.73;;;4.43;;
12840;SDS011;6487;48.626;12.486;2023-05-29T08:54:30;5.47;;;4.17;;
12840;SDS011;6487;48.626;12.486;2023-05-29T08:56:59;5.83;;;4.20;;
12840;SDS011;6487;48.626;12.486;2023-05-29T08:59:31;5.07;;;3.63;;
12840;SDS011;6487;48.626;12.486;2023-05-29T09:02:02;7.17;;;4.30;;
12840;SDS011;6487;48.626;12.486;2023-05-29T09:04:31;4.73;;;4.23;;
12840;SDS011;6487;48.626;12.486;2023-05-29T09:07:00;5.70;;;4.03;;
12840;SDS011;6487;48.626;12.486;2023-05-29T09:09:29;5.87;;;3.87;;
12840;SDS011;6487;48.626;12.486;2023-05-29T09:11:59;4.87;;;4.37;;
12840;SDS011;6487;48.626;12.486;2023-05-29T09:14:32;6.23;;;4.03;;
12840;SDS011;6487;48.626;12.486;2023-05-29T09:17:03;4.30;;;3.83;;
12840;SDS011;6487;48.626;12.486;2023-05-29T09:19:33;5.00;;;4.50;;
12840;SDS011;6487;48.626;12.486;2023-05-29T09:22:03;5.68;;;4.25;;
12840;SDS011;6487;48.626;12.486;2023-05-29T09:24:34;6.97;;;4.35;;
12840;SDS011;6487;48.626;12.486;2023-05-29T09:27:04;6.22;;;4.80;;
12840;SDS011;6487;48.626;12.486;2023-05-29T09:29:37;4.75;;;4.15;;
12840;SDS011;6487;48.626;12.486;2023-05-29T09:32:08;4.70;;;3.87;;
12840;SDS011;6487;48.626;12.486;2023-05-29T09:34:37;5.03;;;4.53;;
12840;SDS011;6487;48.626;12.486;2023-05-29T09:37:06;4.80;;;4.30;;
12840;SDS011;6487;48.626;12.486;2023-05-29T09:39:45;5.20;;;4.40;;
12840;SDS011;6487;48.626;12.486;2023-05-29T09:42:14;10.93;;;4.43;;
12840;SDS011;6487;48.626;12.486;2023-05-29T09:44:44;4.45;;;3.92;;
12840;SDS011;6487;48.626;12.486;2023-05-29T09:47:17;5.20;;;4.13;;
12840;SDS011;6487;48.626;12.486;2023-05-29T09:49:47;6.68;;;4.57;;
12840;SDS011;6487;48.626;12.486;2023-05-29T09:52:16;4.43;;;3.92;;
12840;SDS011;6487;48.626;12.486;2023-05-29T09:54:49;5.38;;;4.63;;
12840;SDS011;6487;48.626;12.486;2023-05-29T09:57:22;5.32;;;4.72;;
12840;SDS011;6487;48.626;12.486;2023-05-29T09:59:52;4.40;;;3.97;;
12840;SDS011;6487;48.626;12.486;2023-05-29T10:02:23;4.90;;;4.38;;
12840;SDS011;6487;48.626;12.486;2023-05-29T10:04:52;5.65;;;4.57;;
12840;SDS011;6487;48.626;12.486;2023-05-29T10:07:25;4.88;;;4.38;;
12840;SDS011;6487;48.626;12.486;2023-05-29T10:09:58;5.05;;;4.30;;
12840;SDS011;6487;48.626;12.486;2023-05-29T10:12:29;5.47;;;4.45;;
12840;SDS011;6487;48.626;12.486;2023-05-29T10:15:00;4.57;;;4.18;;
12840;SDS011;6487;48.626;12.486;2023-05-29T10:17:33;4.22;;;3.80;;
12840;SDS011;6487;48.626;12.486;2023-05-29T10:20:04;4.60;;;4.20;;
12840;SDS011;6487;48.626;12.486;2023-05-29T10:22:34;5.35;;;4.55;;
12840;SDS011;6487;48.626;12.486;2023-05-29T10:25:08;4.72;;;4.32;;
12840;SDS011;6487;48.626;12.486;2023-05-29T10:27:38;4.75;;;4.20;;
12840;SDS011;6487;48.626;12.486;2023-05-29T10:30:09;5.43;;;4.10;;
12840;SDS011;6487;48.626;12.486;2023-05-29T10:32:48;6.63;;;4.13;;
12840;SDS011;6487;48.626;12.486;2023-05-29T10:35:39;6.28;;;4.15;;
12840;SDS011;6487;48.626;12.486;2023-05-29T10:38:23;5.72;;;4.28;;
12840;SDS011;6487;48.626;12.486;2023-05-29T10:40:53;4.82;;;4.43;;
12840;SDS011;6487;48.626;12.486;2023-05-29T10:43:30;5.18;;;4.65;;
12840;SDS011;6487;48.626;12.486;2023-05-29T10:46:03;4.82;;;3.70;;
12840;SDS011;6487;48.626;12.486;2023-05-29T10:48:40;4.80;;;4.32;;
12840;SDS011;6487;48.626;12.486;2023-05-29T10:53:54;5.60;;;4.30;;
12840;SDS011;6487;48.626;12.486;2023-05-29T10:56:24;6.10;;;4.20;;
12840;SDS011;6487;48.626;12.486;2023-05-29T10:58:59;4.38;;;3.78;;
12840;SDS011;6487;48.626;12.486;2023-05-29T11:01:30;4.60;;;3.85;;
12840;SDS011;6487;48.626;12.486;2023-05-29T11:06:59;4.90;;;3.88;;
12840;SDS011;6487;48.626;12.486;2023-05-29T11:09:33;4.05;;;3.65;;
12840;SDS011;6487;48.626;12.486;2023-05-29T11:12:13;6.82;;;4.10;;
12840;SDS011;6487;48.626;12.486;2023-05-29T11:14:55;5.80;;;4.10;;
12840;SDS011;6487;48.626;12.486;2023-05-29T11:17:42;5.75;;;4.72;;
12840;SDS011;6487;48.626;12.486;2023-05-29T11:20:25;6.03;;;3.65;;
12840;SDS011;6487;48.626;12.486;2023-05-29T11:23:04;5.47;;;4.32;;
12840;SDS011;6487;48.626;12.486;2023-05-29T11:25:35;11.02;;;4.28;;
12840;SDS011;6487;48.626;12.486;2023-05-29T11:28:04;4.25;;;3.85;;
12840;SDS011;6487;48.626;12.486;2023-05-29T11:30:43;7.30;;;3.83;;
12840;SDS011;6487;48.626;12.486;2023-05-29T11:33:23;4.63;;;3.53;;
12840;SDS011;6487;48.626;12.486;2023-05-29T11:35:58;4.28;;;3.83;;
12840;SDS011;6487;48.626;12.486;2023-05-29T11:38:30;6.55;;;4.25;;
12840;SDS011;6487;48.626;12.486;2023-05-29T11:41:00;4.13;;;3.72;;
12840;SDS011;6487;48.626;12.486;2023-05-29T11:43:29;5.72;;;4.05;;
12840;SDS011;6487;48.626;12.486;2023-05-29T11:45:59;4.00;;;3.63;;
12840;SDS011;6487;48.626;12.486;2023-05-29T11:48:44;4.50;;;4.10;;
12840;SDS011;6487;48.626;12.486;2023-05-29T11:51:14;4.75;;;3.70;;
12840;SDS011;6487;48.626;12.486;2023-05-29T11:53:43;4.32;;;3.92;;
12840;SDS011;6487;48.626;12.486;2023-05-29T11:56:14;4.40;;;4.00;;
12840;SDS011;6487;48.626;12.486;2023-05-29T11:58:43;4.47;;;4.03;;
12840;SDS011;6487;48.626;12.486;2023-05-29T12:01:12;4.22;;;3.78;;
12840;SDS011;6487;48.626;12.486;2023-05-29T12:03:45;4.35;;;3.95;;
12840;SDS011;6487;48.626;12.486;2023-05-29T12:06:15;4.07;;;3.38;;
12840;SDS011;6487;48.626;12.486;2023-05-29T12:08:58;5.88;;;3.45;;
12840;SDS011;6487;48.626;12.486;2023-05-29T12:11:27;4.00;;;3.60;;
12840;SDS011;6487;48.626;12.486;2023-05-29T12:14:02;3.88;;;3.13;;
12840;SDS011;6487;48.626;12.486;2023-05-29T12:16:31;3.92;;;3.55;;
12840;SDS011;6487;48.626;12.486;2023-05-29T12:19:01;6.35;;;3.95;;
12840;SDS011;6487;48.626;12.486;2023-05-29T12:21:31;4.25;;;3.85;;
12840;SDS011;6487;48.626;12.486;2023-05-29T12:24:04;5.15;;;3.90;;
12840;SDS011;6487;48.626;12.486;2023-05-29T12:26:41;5.28;;;3.67;;
12840;SDS011;6487;48.626;12.486;2023-05-29T12:29:10;4.15;;;3.67;;
12840;SDS011;6487;48.626;12.486;2023-05-29T12:31:38;6.13;;;3.92;;
12840;SDS011;6487;48.626;12.486;2023-05-29T12:34:08;4.22;;;3.83;;
12840;SDS011;6487;48.626;12.486;2023-05-29T12:36:40;4.03;;;3.35;;
12840;SDS011;6487;48.626;12.486;2023-05-29T12:39:10;5.20;;;3.55;;
12840;SDS011;6487;48.626;12.486;2023-05-29T12:41:39;3.35;;;3.10;;
12840;SDS011;6487;48.626;12.486;2023-05-29T12:44:07;3.60;;;3.30;;
12840;SDS011;6487;48.626;12.486;2023-05-29T12:46:37;3.67;;;3.38;;
12840;SDS011;6487;48.626;12.486;2023-05-29T12:49:16;6.32;;;3.45;;
12840;SDS011;6487;48.626;12.486;2023-05-29T12:51:48;4.40;;;3.38;;
12840;SDS011;6487;48.626;12.486;2023-05-29T12:54:18;6.18;;;3.80;;
12840;SDS011;6487;48.626;12.486;2023-05-29T12:56:47;3.67;;;3.38;;
12840;SDS011;6487;48.626;12.486;2023-05-29T12:59:16;5.28;;;3.20;;
12840;SDS011;6487;48.626;12.486;2023-05-29T13:01:45;3.38;;;3.08;;
12840;SDS011;6487;48.626;12.486;2023-05-29T13:04:14;3.83;;;3.50;;
12840;SDS011;6487;48.626;12.486;2023-05-29T13:06:42;5.22;;;3.70;;
12840;SDS011;6487;48.626;12.486;2023-05-29T13:09:12;4.78;;;3.53;;
12840;SDS011;6487;48.626;12.486;2023-05-29T13:11:41;9.05;;;3.70;;
12840;SDS011;6487;48.626;12.486;2023-05-29T13:14:10;5.28;;;3.50;;
12840;SDS011;6487;48.626;12.486;2023-05-29T13:16:38;3.58;;;3.28;;
12840;SDS011;6487;48.626;12.486;2023-05-29T13:19:06;5.22;;;3.53;;
12840;SDS011;6487;48.626;12.486;2023-05-29T13:21:35;5.13;;;3.55;;
12840;SDS011;6487;48.626;12.486;2023-05-29T13:24:03;3.53;;;3.22;;
12840;SDS011;6487;48.626;12.486;2023-05-29T13:26:35;5.85;;;3.90;;
12840;SDS011;6487;48.626;12.486;2023-05-29T13:29:04;5.63;;;3.55;;
12840;SDS011;6487;48.626;12.486;2023-05-29T13:31:37;3.70;;;3.40;;
12840;SDS011;6487;48.626;12.486;2023-05-29T13:34:05;3.20;;;2.95;;
12840;SDS011;6487;48.626;12.486;2023-05-29T13:36:33;3.90;;;3.25;;
12840;SDS011;6487;48.626;12.486;2023-05-29T13:39:02;3.78;;;3.47;;
12840;SDS011;6487;48.626;12.486;2023-05-29T13:41:32;4.97;;;3.65;;
12840;SDS011;6487;48.626;12.486;2023-05-29T13:44:02;8.13;;;3.65;;
12840;SDS011;6487;48.626;12.486;2023-05-29T13:46:31;6.28;;;3.33;;
12840;SDS011;6487;48.626;12.486;2023-05-29T13:48:59;4.15;;;3.30;;
12840;SDS011;6487;48.626;12.486;2023-05-29T13:51:27;3.35;;;3.05;;
12840;SDS011;6487;48.626;12.486;2023-05-29T13:53:56;4.72;;;3.40;;
12840;SDS011;6487;48.626;12.486;2023-05-29T13:56:24;4.18;;;3.60;;
12840;SDS011;6487;48.626;12.486;2023-05-29T13:58:53;5.93;;;3.67;;
12840;SDS011;6487;48.626;12.486;2023-05-29T14:01:23;3.63;;;3.33;;
12840;SDS011;6487;48.626;12.486;2023-05-29T14:03:51;3.70;;;3.40;;
12840;SDS011;6487;48.626;12.486;2023-05-29T14:06:20;4.47;;;3.58;;
12840;SDS011;6487;48.626;12.486;2023-05-29T14:08:48;3.58;;;3.28;;
12840;SDS011;6487;48.626;12.486;2023-05-29T14:11:16;3.72;;;3.30;;
12840;SDS011;6487;48.626;12.486;2023-05-29T14:13:45;3.72;;;3.13;;
12840;SDS011;6487;48.626;12.486;2023-05-29T14:16:13;6.10;;;3.35;;
12840;SDS011;6487;48.626;12.486;2023-05-29T14:18:44;4.72;;;3.60;;
12840;SDS011;6487;48.626;12.486;2023-05-29T14:21:14;3.65;;;2.80;;
12840;SDS011;6487;48.626;12.486;2023-05-29T14:23:43;3.45;;;3.05;;
12840;SDS011;6487;48.626;12.486;2023-05-29T14:26:11;5.50;;;3.47;;
12840;SDS011;6487;48.626;12.486;2023-05-29T14:28:39;4.85;;;3.17;;
12840;SDS011;6487;48.626;12.486;2023-05-29T14:31:08;3.10;;;2.90;;
12840;SDS011;6487;48.626;12.486;2023-05-29T14:33:37;4.13;;;3.83;;
12840;SDS011;6487;48.626;12.486;2023-05-29T14:36:07;4.25;;;3.60;;
12840;SDS011;6487;48.626;12.486;2023-05-29T14:38:36;4.07;;;2.72;;
12840;SDS011;6487;48.626;12.486;2023-05-29T14:41:04;3.00;;;2.80;;
12840;SDS011;6487;48.626;12.486;2023-05-29T14:43:35;3.55;;;3.25;;
12840;SDS011;6487;48.626;12.486;2023-05-29T14:46:05;6.05;;;3.50;;
12840;SDS011;6487;48.626;12.486;2023-05-29T14:48:34;5.53;;;3.80;;
12840;SDS011;6487;48.626;12.486;2023-05-29T14:51:02;5.05;;;3.58;;
12840;SDS011;6487;48.626;12.486;2023-05-29T14:53:32;4.45;;;2.90;;
12840;SDS011;6487;48.626;12.486;2023-05-29T14:56:00;4.13;;;3.20;;
12840;SDS011;6487;48.626;12.486;2023-05-29T14:58:29;3.15;;;2.85;;
12840;SDS011;6487;48.626;12.486;2023-05-29T15:00:57;5.30;;;3.50;;
12840;SDS011;6487;48.626;12.486;2023-05-29T15:03:26;2.97;;;2.67;;
12840;SDS011;6487;48.626;12.486;2023-05-29T15:05:55;3.63;;;2.90;;
12840;SDS011;6487;48.626;12.486;2023-05-29T15:08:23;3.90;;;3.50;;
12840;SDS011;6487;48.626;12.486;2023-05-29T15:10:53;4.22;;;3.53;;
12840;SDS011;6487;48.626;12.486;2023-05-29T15:13:23;5.07;;;3.35;;
12840;SDS011;6487;48.626;12.486;2023-05-29T15:15:52;7.68;;;3.20;;